Time;durP1;ratioP1;P1;durP2;ratioP2;P2;SDS_P1;SDS_P2;PMS_P1;PMS_P2;Temp;Humidity;BMP_temperature;BMP_pressure;BME280_temperature;BME280_humidity;BME280_pressure;Samples;Min_cycle;Max_cycle;Signal;HPM_P1;HPM_P2
2022/02/13 00:01:48;;;;;;;18.58;7.90;;;11.20;88.20;;;;;;5112986;28;20062;-80
2022/02/13 00:04:52;;;;;;;13.82;7.63;;;11.10;88.20;;;;;;5113231;28;20047;-80
2022/02/13 00:07:56;;;;;;;14.30;7.55;;;11.10;88.30;;;;;;5112705;28;20054;-80
2022/02/13 00:10:59;;;;;;;12.10;6.50;;;11.10;88.40;;;;;;5111985;28;20097;-79
2022/02/13 00:14:04;;;;;;;11.77;7.43;;;11.10;88.40;;;;;;5112772;28;20055;-80
2022/02/13 00:17:10;;;;;;;14.38;6.68;;;11.10;88.40;;;;;;5112818;28;20584;-79
2022/02/13 00:20:13;;;;;;;12.82;7.25;;;11.10;88.40;;;;;;5112058;28;20050;-79
2022/02/13 00:23:17;;;;;;;15.00;7.32;;;11.10;88.40;;;;;;5111761;28;20047;-79
2022/02/13 00:26:21;;;;;;;11.73;6.22;;;11.10;88.50;;;;;;5112813;28;20426;-79
2022/02/13 00:29:25;;;;;;;9.77;5.53;;;11.10;88.20;;;;;;5113263;28;20043;-80
2022/02/13 00:32:29;;;;;;;9.07;6.15;;;11.10;88.00;;;;;;5113500;28;20062;-80
2022/02/13 00:35:33;;;;;;;20.05;6.60;;;11.10;87.90;;;;;;5112214;28;20407;-80
2022/02/13 00:38:37;;;;;;;11.52;6.50;;;11.20;88.00;;;;;;5112897;28;20043;-79
2022/02/13 00:41:41;;;;;;;12.85;5.82;;;11.20;87.80;;;;;;5111443;28;20050;-79
2022/02/13 00:44:45;;;;;;;9.52;6.25;;;11.10;87.70;;;;;;5112926;28;20035;-80
2022/02/13 00:47:49;;;;;;;9.43;6.18;;;11.10;87.90;;;;;;5112810;28;20047;-80
2022/02/13 00:50:53;;;;;;;11.15;7.43;;;11.10;88.00;;;;;;5113024;28;20414;-80
2022/02/13 00:53:56;;;;;;;15.68;7.97;;;11.00;88.70;;;;;;5112481;28;20042;-79
2022/02/13 00:57:01;;;;;;;11.73;7.63;;;11.00;88.90;;;;;;5112932;28;20113;-79
2022/02/13 01:00:06;;;;;;;10.68;6.93;;;11.00;88.30;;;;;;5112359;28;20035;-79
2022/02/13 01:03:10;;;;;;;9.30;6.20;;;10.90;88.60;;;;;;5112825;28;20059;-79
2022/02/13 01:06:14;;;;;;;10.10;6.72;;;10.90;88.50;;;;;;5112888;28;20039;-79
2022/02/13 01:09:18;;;;;;;11.95;7.13;;;11.00;88.70;;;;;;5112334;28;20047;-79
2022/02/13 01:12:23;;;;;;;11.07;5.78;;;11.00;88.30;;;;;;5111711;28;20042;-79
2022/02/13 01:15:27;;;;;;;12.52;6.60;;;11.00;88.30;;;;;;5112340;28;20054;-79
2022/02/13 01:18:31;;;;;;;10.40;5.97;;;11.00;88.30;;;;;;5112838;28;20138;-79
2022/02/13 01:21:35;;;;;;;11.02;6.22;;;11.10;88.00;;;;;;5112180;28;20042;-79
2022/02/13 01:24:39;;;;;;;10.50;6.13;;;11.10;88.00;;;;;;5113033;28;20046;-80
2022/02/13 01:27:44;;;;;;;11.82;5.82;;;11.10;87.80;;;;;;5112698;28;20043;-79
2022/02/13 01:30:48;;;;;;;13.40;5.57;;;11.10;87.50;;;;;;5112836;28;20038;-80
2022/02/13 01:33:51;;;;;;;9.10;5.32;;;11.20;87.40;;;;;;5112611;28;20038;-80
2022/02/13 01:36:55;;;;;;;10.77;5.97;;;11.20;87.20;;;;;;5111564;28;20042;-79
2022/02/13 01:39:59;;;;;;;9.88;5.22;;;11.30;86.90;;;;;;5111658;28;20200;-79
2022/02/13 01:43:03;;;;;;;8.30;4.78;;;11.30;86.70;;;;;;5111831;28;20106;-80
2022/02/13 01:46:07;;;;;;;9.00;5.03;;;11.40;86.70;;;;;;5111523;28;20046;-79
2022/02/13 01:49:11;;;;;;;9.30;4.25;;;11.30;86.50;;;;;;5112182;28;20062;-80
2022/02/13 01:52:15;;;;;;;8.23;4.70;;;11.40;86.40;;;;;;5111874;28;20039;-80
2022/02/13 01:55:20;;;;;;;7.45;4.63;;;11.40;86.40;;;;;;5112037;28;20399;-80
2022/02/13 01:58:24;;;;;;;8.35;4.00;;;11.40;85.60;;;;;;5115612;28;20043;-80
2022/02/13 02:01:28;;;;;;;11.57;4.10;;;11.50;85.80;;;;;;5116556;28;20051;-80
2022/02/13 02:04:32;;;;;;;10.20;4.05;;;11.50;85.50;;;;;;5115670;28;20039;-80
2022/02/13 02:07:38;;;;;;;7.40;4.20;;;11.50;85.60;;;;;;5115064;28;20050;-79
2022/02/13 02:10:42;;;;;;;5.05;3.67;;;11.50;85.80;;;;;;5116021;28;20406;-79
2022/02/13 02:13:46;;;;;;;4.97;4.07;;;11.50;85.10;;;;;;5116085;28;20391;-79
2022/02/13 02:16:49;;;;;;;7.50;4.15;;;11.60;85.40;;;;;;5115132;28;20043;-80
2022/02/13 02:19:54;;;;;;;10.30;4.10;;;11.50;85.50;;;;;;5115034;28;20058;-79
2022/02/13 02:22:59;;;;;;;7.68;4.32;;;11.50;85.30;;;;;;5091838;28;20521;-80
2022/02/13 02:26:03;;;;;;;7.38;4.32;;;11.50;85.30;;;;;;5115998;28;20062;-79
2022/02/13 02:29:07;;;;;;;7.47;3.67;;;11.50;85.50;;;;;;5115923;28;20050;-80
2022/02/13 02:32:11;;;;;;;6.55;4.07;;;11.50;85.50;;;;;;5115892;28;20043;-79
2022/02/13 02:35:15;;;;;;;6.80;3.90;;;11.50;85.60;;;;;;5114879;28;20406;-80
2022/02/13 02:38:19;;;;;;;9.40;3.58;;;11.50;85.50;;;;;;5115710;28;20042;-80
2022/02/13 02:41:23;;;;;;;8.35;3.78;;;11.50;85.30;;;;;;5115896;28;20046;-79
2022/02/13 02:44:28;;;;;;;5.60;3.60;;;11.60;85.40;;;;;;5115594;28;20038;-80
2022/02/13 02:47:32;;;;;;;7.22;4.43;;;11.60;85.40;;;;;;5115860;28;20051;-80
2022/02/13 02:50:36;;;;;;;7.25;4.20;;;11.50;85.50;;;;;;5114959;28;20054;-80
2022/02/13 02:53:42;;;;;;;9.65;4.22;;;11.50;85.70;;;;;;5116028;28;20394;-80
2022/02/13 02:56:47;;;;;;;6.68;3.95;;;11.40;85.80;;;;;;5102644;28;20047;-80
2022/02/13 02:59:51;;;;;;;5.95;3.50;;;11.40;85.70;;;;;;5114195;28;20047;-80
2022/02/13 03:02:55;;;;;;;6.25;3.92;;;11.40;85.60;;;;;;5113939;28;20042;-80
2022/02/13 03:05:59;;;;;;;9.90;4.05;;;11.50;85.90;;;;;;5102371;28;20041;-79
2022/02/13 03:09:03;;;;;;;6.72;3.72;;;11.50;85.80;;;;;;5113075;28;20062;-80
2022/02/13 03:12:07;;;;;;;9.07;3.45;;;11.50;85.80;;;;;;5113480;28;20046;-80
2022/02/13 03:15:11;;;;;;;5.82;3.42;;;11.50;85.70;;;;;;5113228;28;20054;-80
2022/02/13 03:18:17;;;;;;;10.40;4.97;;;11.50;86.10;;;;;;5113575;28;20039;-80
2022/02/13 03:21:21;;;;;;;6.85;3.15;;;11.50;85.50;;;;;;5113235;28;20109;-80
2022/02/13 03:24:25;;;;;;;8.13;3.40;;;11.50;85.50;;;;;;5113311;28;20066;-80
2022/02/13 03:27:30;;;;;;;7.40;3.50;;;11.50;85.00;;;;;;5113849;28;20046;-80
2022/02/13 03:30:35;;;;;;;7.68;3.55;;;11.60;84.50;;;;;;5112890;28;20047;-80
2022/02/13 03:33:39;;;;;;;5.50;3.83;;;11.60;84.60;;;;;;5114020;28;20043;-79
2022/02/13 03:36:43;;;;;;;7.32;3.58;;;11.60;84.40;;;;;;5113061;28;20050;-80
2022/02/13 03:39:47;;;;;;;5.20;4.10;;;11.60;84.20;;;;;;5112792;28;20387;-80
2022/02/13 03:42:51;;;;;;;3.92;3.10;;;11.50;84.00;;;;;;5113127;28;20046;-80
2022/02/13 03:45:56;;;;;;;7.03;3.35;;;11.50;84.30;;;;;;5112934;28;20042;-80
2022/02/13 03:48:59;;;;;;;5.05;3.15;;;11.50;84.40;;;;;;5112419;28;20046;-80
2022/02/13 03:52:04;;;;;;;14.40;3.75;;;11.40;84.60;;;;;;5113360;28;20511;-79
2022/02/13 03:55:09;;;;;;;7.75;4.18;;;11.40;85.10;;;;;;5113387;28;20054;-79
2022/02/13 03:58:13;;;;;;;5.35;3.45;;;11.30;85.30;;;;;;5113182;28;20039;-80
2022/02/13 04:01:17;;;;;;;12.18;3.50;;;11.20;86.10;;;;;;5113349;28;20050;-80
2022/02/13 04:04:21;;;;;;;6.00;3.47;;;11.10;85.80;;;;;;5112265;28;20047;-79
2022/02/13 04:07:28;;;;;;;8.90;3.92;;;11.10;86.10;;;;;;5112319;28;20042;-79
2022/02/13 04:10:32;;;;;;;7.05;3.40;;;11.10;86.20;;;;;;5113217;28;20038;-80
2022/02/13 04:13:36;;;;;;;6.90;3.63;;;11.00;86.40;;;;;;5113498;28;20039;-79
2022/02/13 04:16:40;;;;;;;6.82;3.55;;;11.10;86.40;;;;;;5112057;28;20052;-79
2022/02/13 04:19:46;;;;;;;9.48;3.50;;;10.90;87.10;;;;;;5112150;28;20046;-80
2022/02/13 04:22:51;;;;;;;9.13;3.50;;;10.90;86.70;;;;;;5112932;28;20038;-79
2022/02/13 04:25:55;;;;;;;5.32;3.80;;;10.90;86.80;;;;;;5113301;28;20042;-79
2022/02/13 04:29:00;;;;;;;10.05;4.03;;;10.90;87.10;;;;;;5112180;28;20407;-79
2022/02/13 04:32:05;;;;;;;7.68;3.75;;;10.90;86.60;;;;;;5111864;28;20042;-79
2022/02/13 04:35:09;;;;;;;6.30;3.92;;;10.90;86.40;;;;;;5111560;28;20054;-79
2022/02/13 04:38:14;;;;;;;10.57;4.43;;;10.90;86.50;;;;;;5111741;28;20062;-79
2022/02/13 04:41:21;;;;;;;8.70;4.00;;;10.90;86.50;;;;;;5111520;28;20047;-79
2022/02/13 04:44:25;;;;;;;15.35;4.07;;;10.80;86.00;;;;;;5111682;28;20106;-79
2022/02/13 04:47:29;;;;;;;10.18;3.90;;;10.80;86.00;;;;;;5111686;28;20046;-79
2022/02/13 04:50:34;;;;;;;8.25;4.38;;;10.90;85.90;;;;;;5111511;28;20403;-79
2022/02/13 04:53:38;;;;;;;8.55;3.80;;;10.90;86.00;;;;;;5112414;28;20525;-79
2022/02/13 04:56:42;;;;;;;8.15;4.15;;;10.80;85.80;;;;;;5112358;28;20059;-79
2022/02/13 04:59:46;;;;;;;9.27;4.57;;;10.80;86.00;;;;;;5111413;28;20038;-79
2022/02/13 05:02:51;;;;;;;9.18;4.47;;;10.80;85.70;;;;;;5111306;28;20051;-79
2022/02/13 05:05:55;;;;;;;8.77;6.68;;;10.80;85.60;;;;;;5111289;28;20039;-79
2022/02/13 05:09:01;;;;;;;8.23;5.50;;;10.80;85.50;;;;;;5111345;28;20046;-79
2022/02/13 05:12:06;;;;;;;9.32;5.72;;;10.80;85.50;;;;;;5111995;28;20498;-79
2022/02/13 05:15:11;;;;;;;10.10;4.50;;;10.80;85.40;;;;;;5111106;28;20054;-79
2022/02/13 05:18:15;;;;;;;7.80;4.57;;;10.80;85.30;;;;;;5111112;28;20062;-79
2022/02/13 05:21:19;;;;;;;9.75;3.83;;;10.80;85.50;;;;;;5111757;28;20395;-79
2022/02/13 05:24:23;;;;;;;9.07;3.92;;;10.80;85.20;;;;;;5111154;28;20035;-79
2022/02/13 05:27:28;;;;;;;8.52;3.88;;;10.70;85.20;;;;;;5111717;28;20047;-79
2022/02/13 05:30:32;;;;;;;8.30;4.18;;;10.70;85.00;;;;;;5111540;28;20038;-79
2022/02/13 05:33:36;;;;;;;6.90;4.05;;;10.80;85.30;;;;;;5110689;28;20062;-79
2022/02/13 05:36:42;;;;;;;7.18;3.88;;;10.80;85.10;;;;;;5110434;28;20055;-79
2022/02/13 05:39:46;;;;;;;11.00;4.60;;;10.80;85.10;;;;;;5110748;28;20042;-79
2022/02/13 05:42:50;;;;;;;7.82;3.85;;;10.80;84.90;;;;;;5111757;28;20505;-79
2022/02/13 05:45:54;;;;;;;6.55;4.40;;;10.70;85.30;;;;;;5110977;28;20493;-79
2022/02/13 05:48:59;;;;;;;6.90;4.28;;;10.70;86.00;;;;;;5110445;28;20054;-79
2022/02/13 05:52:03;;;;;;;8.18;4.18;;;10.60;86.60;;;;;;5110677;28;20054;-79
2022/02/13 05:55:08;;;;;;;7.72;4.75;;;10.50;86.70;;;;;;5110564;28;20059;-79
2022/02/13 05:58:12;;;;;;;8.02;4.82;;;10.40;86.70;;;;;;5111470;28;20506;-78
2022/02/13 06:01:17;;;;;;;20.63;5.20;;;10.40;88.00;;;;;;5110547;28;20233;-79
2022/02/13 06:04:25;;;;;;;9.10;5.45;;;10.40;88.20;;;;;;5110651;28;20038;-79
2022/02/13 06:07:34;;;;;;;11.52;4.20;;;10.30;88.40;;;;;;5110586;28;20066;-79
2022/02/13 06:10:38;;;;;;;12.02;5.63;;;10.30;87.00;;;;;;5110823;28;20063;-79
2022/02/13 06:13:42;;;;;;;9.93;5.57;;;10.20;86.90;;;;;;5110899;28;20047;-79
2022/02/13 06:16:46;;;;;;;8.23;5.38;;;10.30;87.60;;;;;;5111863;28;20379;-79
2022/02/13 06:19:50;;;;;;;8.27;4.40;;;10.40;86.90;;;;;;5112156;28;20043;-79
2022/02/13 06:22:55;;;;;;;10.57;4.53;;;10.40;86.40;;;;;;5111860;28;20046;-79
2022/02/13 06:25:59;;;;;;;6.68;4.60;;;10.50;86.00;;;;;;5112242;28;20058;-79
2022/02/13 06:29:04;;;;;;;8.20;4.43;;;10.60;85.90;;;;;;5111896;28;20043;-79
2022/02/13 06:32:08;;;;;;;9.40;4.40;;;10.60;85.80;;;;;;5111927;28;20055;-80
2022/02/13 06:35:13;;;;;;;8.20;4.93;;;10.70;85.80;;;;;;5111629;28;20058;-79
2022/02/13 06:38:17;;;;;;;10.07;4.60;;;10.70;86.00;;;;;;5111955;28;20055;-79
2022/02/13 06:41:21;;;;;;;7.47;4.03;;;10.90;85.60;;;;;;5111933;28;20039;-79
2022/02/13 06:44:25;;;;;;;9.10;4.32;;;11.00;84.80;;;;;;5112960;28;20561;-80
2022/02/13 06:47:29;;;;;;;7.13;4.15;;;11.10;84.70;;;;;;5115395;28;20047;-79
2022/02/13 06:50:33;;;;;;;6.70;4.38;;;11.10;84.50;;;;;;5074506;28;20056;-80
2022/02/13 06:53:37;;;;;;;11.48;4.68;;;11.20;84.80;;;;;;5074553;28;20048;-80
2022/02/13 06:56:41;;;;;;;6.57;4.18;;;11.20;84.30;;;;;;5074461;28;20048;-81
2022/02/13 06:59:45;;;;;;;10.02;5.13;;;11.40;84.00;;;;;;5074504;28;20047;-80
2022/02/13 07:02:50;;;;;;;8.52;4.50;;;11.70;83.40;;;;;;5074026;28;20043;-80
2022/02/13 07:05:54;;;;;;;9.85;4.57;;;11.80;83.10;;;;;;5072884;28;20040;-80
2022/02/13 07:08:58;;;;;;;8.52;4.30;;;12.00;82.90;;;;;;5073849;28;20052;-80
2022/02/13 07:12:09;;;;;;;7.63;4.35;;;12.20;82.50;;;;;;5073727;28;20039;-80
2022/02/13 07:15:12;;;;;;;7.50;4.20;;;12.40;81.90;;;;;;5073665;28;20055;-80
2022/02/13 07:18:16;;;;;;;10.38;4.35;;;12.50;81.30;;;;;;5072956;28;20043;-80
2022/02/13 07:21:20;;;;;;;12.38;4.72;;;12.50;81.00;;;;;;5072579;28;20043;-81
2022/02/13 07:24:25;;;;;;;7.00;3.92;;;12.60;81.20;;;;;;5072700;28;20047;-81
2022/02/13 07:27:30;;;;;;;9.30;3.92;;;12.70;81.10;;;;;;5072522;28;20047;-80
2022/02/13 07:30:34;;;;;;;6.15;3.83;;;12.90;80.90;;;;;;5072181;28;20040;-71
2022/02/13 07:33:38;;;;;;;5.55;3.50;;;13.10;80.70;;;;;;5072487;28;20061;-71
2022/02/13 07:36:42;;;;;;;12.85;4.55;;;13.20;79.70;;;;;;5072099;28;20055;-71
2022/02/13 07:39:47;;;;;;;8.45;4.25;;;13.30;79.80;;;;;;5073139;28;20039;-71
2022/02/13 07:42:52;;;;;;;7.88;4.82;;;13.20;79.10;;;;;;5072965;28;20419;-71
2022/02/13 07:45:56;;;;;;;6.57;5.07;;;13.30;80.00;;;;;;5073010;28;20043;-72
2022/02/13 07:49:05;;;;;;;19.63;8.35;;;13.30;80.20;;;;;;5095831;28;20392;-72
2022/02/13 07:52:09;;;;;;;12.05;6.78;;;13.40;80.40;;;;;;5112974;28;20039;-72
2022/02/13 07:55:14;;;;;;;15.55;8.38;;;13.50;81.10;;;;;;5112886;28;20196;-73
2022/02/13 07:58:18;;;;;;;18.25;8.05;;;13.60;81.20;;;;;;5114777;28;20062;-73
2022/02/13 08:01:24;;;;;;;15.90;8.20;;;13.70;81.90;;;;;;5113159;28;20042;-73
2022/02/13 08:04:28;;;;;;;17.92;7.75;;;13.80;80.70;;;;;;5113668;28;20050;-72
2022/02/13 08:07:33;;;;;;;11.32;7.22;;;13.70;80.00;;;;;;5113387;28;20046;-73
2022/02/13 08:10:39;;;;;;;10.10;4.63;;;13.70;79.60;;;;;;5113389;28;20047;-72
2022/02/13 08:13:44;;;;;;;7.88;4.57;;;13.80;78.10;;;;;;5113064;28;20047;-73
2022/02/13 08:16:47;;;;;;;8.10;4.78;;;13.80;78.20;;;;;;5112994;28;20063;-73
2022/02/13 08:19:51;;;;;;;8.68;6.05;;;13.80;77.60;;;;;;5111998;28;20038;-73
2022/02/13 08:22:55;;;;;;;9.77;5.72;;;13.80;78.60;;;;;;5112978;28;20047;-73
2022/02/13 08:25:59;;;;;;;7.72;4.90;;;13.70;78.70;;;;;;5113123;28;20038;-73
2022/02/13 08:29:04;;;;;;;9.20;5.50;;;13.60;78.40;;;;;;5112166;28;20042;-75
2022/02/13 08:32:09;;;;;;;13.35;5.47;;;13.60;78.50;;;;;;5112784;28;20030;-75
2022/02/13 08:35:12;;;;;;;10.48;5.10;;;13.60;77.90;;;;;;5112083;28;20499;-75
2022/02/13 08:38:16;;;;;;;8.20;4.93;;;13.60;78.10;;;;;;5112831;28;20058;-73
2022/02/13 08:41:20;;;;;;;9.73;5.60;;;13.80;77.90;;;;;;5112692;28;20208;-73
2022/02/13 08:44:24;;;;;;;10.80;5.75;;;13.90;77.00;;;;;;5111801;28;20047;-73
2022/02/13 08:47:29;;;;;;;10.85;5.85;;;14.00;76.90;;;;;;5112686;28;20506;-73
2022/02/13 08:50:33;;;;;;;11.45;5.60;;;14.10;77.10;;;;;;5112226;28;20070;-73
2022/02/13 08:53:37;;;;;;;10.18;5.10;;;14.20;76.50;;;;;;5112580;28;20232;-73
2022/02/13 08:56:42;;;;;;;7.22;5.45;;;14.30;76.40;;;;;;5111303;28;20054;-73
2022/02/13 08:59:46;;;;;;;8.95;5.38;;;14.40;75.30;;;;;;5112385;28;20042;-72
2022/02/13 09:02:50;;;;;;;8.82;5.60;;;14.50;75.70;;;;;;5113016;28;20054;-72
2022/02/13 09:05:54;;;;;;;9.65;5.20;;;14.60;75.50;;;;;;5112381;28;20494;-72
2022/02/13 09:08:58;;;;;;;10.25;5.68;;;14.70;75.50;;;;;;5112375;28;20426;-74
2022/02/13 09:12:02;;;;;;;10.05;5.20;;;14.80;74.50;;;;;;5111682;28;20387;-72
2022/02/13 09:15:07;;;;;;;10.65;5.80;;;14.90;74.80;;;;;;5112231;28;20051;-72
2022/02/13 09:18:12;;;;;;;7.95;5.78;;;14.90;74.50;;;;;;5112098;28;20038;-72
2022/02/13 09:21:16;;;;;;;11.13;6.18;;;15.00;74.40;;;;;;5112002;28;20518;-73
2022/02/13 09:24:21;;;;;;;11.40;5.97;;;15.10;74.20;;;;;;5112184;28;20046;-73
2022/02/13 09:27:26;;;;;;;9.27;5.85;;;15.20;74.30;;;;;;5112142;28;20047;-73
2022/02/13 09:30:30;;;;;;;13.50;6.70;;;15.30;73.70;;;;;;5111890;28;20047;-73
2022/02/13 09:33:35;;;;;;;11.80;6.43;;;15.40;74.00;;;;;;5110911;28;20050;-72
2022/02/13 09:36:40;;;;;;;12.45;6.63;;;15.50;72.60;;;;;;5110489;28;20053;-73
2022/02/13 09:39:44;;;;;;;12.98;7.35;;;15.60;72.90;;;;;;5111728;28;20295;-72
2022/02/13 09:42:48;;;;;;;10.30;5.93;;;15.70;73.00;;;;;;5111709;28;20042;-73
2022/02/13 09:45:54;;;;;;;14.40;6.88;;;15.70;72.50;;;;;;5111498;28;20054;-72
2022/02/13 09:48:58;;;;;;;11.05;6.38;;;15.80;72.90;;;;;;5111289;28;20529;-73
2022/02/13 09:52:04;;;;;;;12.55;6.57;;;15.90;72.60;;;;;;5111815;28;20030;-74
2022/02/13 09:55:08;;;;;;;10.77;6.60;;;16.10;72.50;;;;;;5111081;28;20066;-74
2022/02/13 09:58:12;;;;;;;12.02;6.50;;;16.30;71.20;;;;;;5111625;28;20058;-74
2022/02/13 10:01:17;;;;;;;11.45;6.15;;;16.50;71.30;;;;;;5111026;28;20039;-74
2022/02/13 10:04:41;;;;;;;13.77;6.53;;;16.60;71.00;;;;;;5111391;28;20062;-74
2022/02/13 10:07:45;;;;;;;12.77;6.72;;;16.70;70.30;;;;;;5111516;28;20300;-74
2022/02/13 10:10:49;;;;;;;12.43;6.25;;;16.80;70.00;;;;;;5111448;28;20049;-74
2022/02/13 10:14:12;;;;;;;10.95;6.05;;;16.90;68.80;;;;;;5110632;28;20218;-74
2022/02/13 10:17:16;;;;;;;11.13;6.10;;;16.80;69.00;;;;;;5111115;28;20046;-74
2022/02/13 10:20:27;;;;;;;9.48;5.25;;;16.90;69.70;;;;;;5114562;28;20043;-74
2022/02/13 10:23:31;;;;;;;;;;;17.10;69.20;;;;;;5115113;28;20054;-74
2022/02/13 10:26:36;;;;;;;11.02;6.10;;;17.20;69.10;;;;;;5115207;28;20367;-74
2022/02/13 10:29:41;;;;;;;11.20;6.03;;;17.30;68.10;;;;;;5115076;28;20529;-74
2022/02/13 10:32:45;;;;;;;10.77;6.05;;;17.40;68.60;;;;;;5115334;28;20047;-74
2022/02/13 10:36:10;;;;;;;10.07;6.00;;;17.50;69.00;;;;;;5114380;28;20055;-74
2022/02/13 10:39:26;;;;;;;9.98;6.50;;;17.60;68.00;;;;;;5115037;28;20070;-75
2022/02/13 10:42:31;;;;;;;10.73;5.45;;;17.70;67.60;;;;;;5115149;28;20038;-74
2022/02/13 10:45:39;;;;;;;9.40;6.15;;;17.80;67.40;;;;;;5115053;28;20391;-74
2022/02/13 10:48:45;;;;;;;9.05;6.20;;;17.70;66.10;;;;;;5114665;28;20046;-74
2022/02/13 10:51:51;;;;;;;9.02;6.13;;;17.60;67.30;;;;;;5114382;28;20506;-75
2022/02/13 10:54:55;;;;;;;7.97;5.82;;;17.70;67.80;;;;;;5113906;28;20039;-74
2022/02/13 10:58:00;;;;;;;9.82;6.40;;;17.80;68.00;;;;;;5113853;28;20050;-74
2022/02/13 11:01:06;;;;;;;13.05;7.72;;;18.00;68.00;;;;;;5114747;28;20169;-74
2022/02/13 11:04:11;;;;;;;10.38;6.55;;;18.00;66.80;;;;;;5114902;28;20046;-74
2022/02/13 11:07:15;;;;;;;10.00;6.03;;;18.10;66.00;;;;;;5101861;28;20041;-78
2022/02/13 11:10:30;;;;;;;10.60;6.03;;;18.10;66.10;;;;;;5114512;28;20439;-73
2022/02/13 11:13:34;;;;;;;12.18;7.45;;;18.20;65.40;;;;;;5113482;28;20035;-73
2022/02/13 11:16:45;;;;;;;12.65;8.00;;;18.20;65.80;;;;;;5113875;28;20063;-73
2022/02/13 11:19:49;;;;;;;14.35;9.27;;;18.20;65.90;;;;;;5114225;28;20043;-73
2022/02/13 11:22:54;;;;;;;15.05;9.00;;;18.10;66.20;;;;;;5114013;28;20506;-72
2022/02/13 11:26:03;;;;;;;11.77;7.85;;;18.00;66.80;;;;;;5101302;28;20050;-72
2022/02/13 11:29:08;;;;;;;9.73;7.10;;;18.00;66.70;;;;;;5113228;28;20050;-72
2022/02/13 11:32:42;;;;;;;14.05;7.68;;;18.00;66.80;;;;;;5113454;28;20383;-72
2022/02/13 11:36:06;;;;;;;10.43;7.97;;;17.80;67.00;;;;;;5114024;28;20117;-72
2022/02/13 11:39:11;;;;;;;12.98;8.10;;;17.80;67.10;;;;;;5113876;28;20051;-72
2022/02/13 11:42:19;;;;;;;12.65;7.63;;;17.80;67.10;;;;;;5113103;28;20051;-72
2022/02/13 11:45:24;;;;;;;10.77;7.25;;;17.70;66.90;;;;;;5113787;28;20047;-72
2022/02/13 11:48:36;;;;;;;14.55;8.43;;;17.70;67.10;;;;;;5112404;28;20058;-72
2022/02/13 11:51:46;;;;;;;13.05;8.18;;;17.70;67.30;;;;;;5113617;28;20038;-72
2022/02/13 11:54:50;;;;;;;16.65;10.32;;;17.60;66.90;;;;;;5113404;28;20050;-72
2022/02/13 11:57:58;;;;;;;16.98;11.48;;;17.40;66.70;;;;;;5113674;28;20050;-72
2022/02/13 12:01:02;;;;;;;12.05;7.57;;;17.30;67.40;;;;;;5112573;28;20039;-72
2022/02/13 12:04:08;;;;;;;9.18;6.38;;;17.30;68.00;;;;;;5112651;28;20050;-72
2022/02/13 12:07:15;;;;;;;10.40;6.78;;;17.40;68.30;;;;;;5113565;28;20046;-72
2022/02/13 12:10:29;;;;;;;9.93;7.10;;;17.40;68.20;;;;;;5113241;28;20062;-72
2022/02/13 12:13:36;;;;;;;13.70;8.50;;;17.50;68.50;;;;;;5113259;28;20050;-72
2022/02/13 12:16:49;;;;;;;12.55;7.80;;;17.60;67.80;;;;;;5112791;28;20054;-72
2022/02/13 12:20:01;;;;;;;10.50;6.90;;;17.60;67.30;;;;;;5113145;28;20121;-72
2022/02/13 12:23:07;;;;;;;14.77;8.40;;;17.70;68.00;;;;;;5112208;28;20084;-72
2022/02/13 12:26:20;;;;;;;10.18;7.28;;;17.70;68.70;;;;;;5112859;28;20038;-72
2022/02/13 12:29:24;;;;;;;13.40;9.25;;;17.70;69.00;;;;;;5112724;28;20101;-72
2022/02/13 12:32:36;;;;;;;13.27;8.00;;;17.80;68.00;;;;;;5112895;28;20051;-72
2022/02/13 12:35:40;;;;;;;17.30;12.43;;;17.80;68.00;;;;;;5113242;28;20050;-72
2022/02/13 12:38:45;;;;;;;14.13;8.38;;;17.80;68.40;;;;;;5112918;28;20050;-72
2022/02/13 12:41:52;;;;;;;9.98;6.82;;;17.70;68.60;;;;;;5111849;28;20043;-72
2022/02/13 12:44:58;;;;;;;10.57;7.28;;;17.70;68.60;;;;;;5112839;28;20046;-72
2022/02/13 12:48:05;;;;;;;11.25;7.35;;;17.80;68.60;;;;;;5112268;28;20067;-72
2022/02/13 12:51:11;;;;;;;12.68;6.88;;;17.80;68.10;;;;;;5112387;28;20058;-72
2022/02/13 12:54:16;;;;;;;8.70;6.72;;;17.70;68.00;;;;;;5112383;28;20042;-73
2022/02/13 12:57:24;;;;;;;12.18;6.88;;;17.70;68.40;;;;;;5112424;28;20062;-72
2022/02/13 13:00:32;;;;;;;12.85;6.50;;;17.70;67.10;;;;;;5112280;28;20039;-72
2022/02/13 13:03:37;;;;;;;9.98;6.55;;;17.70;67.60;;;;;;5112429;28;20050;-72
2022/02/13 13:06:41;;;;;;;9.90;6.05;;;17.60;67.40;;;;;;5112370;28;20059;-72
2022/02/13 13:09:46;;;;;;;9.43;6.00;;;17.60;68.00;;;;;;5112239;28;20050;-73
2022/02/13 13:13:08;;;;;;;16.63;7.32;;;17.60;67.90;;;;;;5112247;28;20038;-72
2022/02/13 13:16:22;;;;;;;11.85;5.85;;;17.60;67.00;;;;;;5111734;28;20043;-72
2022/02/13 13:19:26;;;;;;;8.38;5.75;;;17.50;67.20;;;;;;5111192;28;20498;-72
2022/02/13 13:22:31;;;;;;;12.40;6.43;;;17.50;68.00;;;;;;5111228;28;20038;-72
2022/02/13 13:25:35;;;;;;;15.27;8.98;;;17.50;68.10;;;;;;5111894;28;20043;-72
2022/02/13 13:28:40;;;;;;;17.42;9.23;;;17.50;69.60;;;;;;5111989;28;20043;-73
2022/02/13 13:31:59;;;;;;;16.15;9.52;;;17.40;70.30;;;;;;5111847;28;20054;-72
2022/02/13 13:35:06;;;;;;;14.48;7.75;;;17.40;70.00;;;;;;5111729;28;20046;-72
2022/02/13 13:38:11;;;;;;;7.82;5.88;;;17.40;70.00;;;;;;5111804;28;20055;-72
2022/02/13 13:41:15;;;;;;;11.25;6.88;;;17.40;70.20;;;;;;5111811;28;20034;-72
2022/02/13 13:44:23;;;;;;;13.43;8.15;;;17.30;71.70;;;;;;5110858;28;20054;-72
2022/02/13 13:47:28;;;;;;;11.13;7.10;;;17.30;73.20;;;;;;5111803;28;20046;-73
2022/02/13 13:50:36;;;;;;;11.07;6.80;;;17.30;73.70;;;;;;5111690;28;20054;-72
2022/02/13 13:53:40;;;;;;;10.15;7.65;;;17.30;74.10;;;;;;5111320;28;20066;-72
2022/02/13 13:56:44;;;;;;;15.80;8.63;;;17.20;74.20;;;;;;5111833;28;20051;-72
2022/02/13 13:59:48;;;;;;;13.93;6.90;;;17.20;73.80;;;;;;5111559;28;20046;-72
2022/02/13 14:02:58;;;;;;;11.48;7.22;;;17.10;73.80;;;;;;5111319;28;20038;-72
2022/02/13 14:06:02;;;;;;;8.45;6.65;;;17.10;73.90;;;;;;5111555;28;20046;-72
2022/02/13 14:09:06;;;;;;;9.95;6.20;;;17.10;74.60;;;;;;5111075;28;20391;-72
2022/02/13 14:12:14;;;;;;;10.68;7.22;;;17.00;75.00;;;;;;5110311;28;20043;-72
2022/02/13 14:15:20;;;;;;;11.15;7.30;;;17.00;75.20;;;;;;5111217;28;20051;-72
2022/02/13 14:18:24;;;;;;;9.02;6.65;;;16.90;75.40;;;;;;5111551;28;20160;-72
2022/02/13 14:21:30;;;;;;;17.17;8.00;;;16.90;75.60;;;;;;5111225;28;20443;-72
2022/02/13 14:24:34;;;;;;;11.98;6.78;;;16.80;76.10;;;;;;5111396;28;20043;-72
2022/02/13 14:27:39;;;;;;;16.73;6.80;;;16.80;76.90;;;;;;5110508;28;20505;-72
2022/02/13 14:30:43;;;;;;;11.07;6.32;;;16.80;77.80;;;;;;5110915;28;20388;-72
2022/02/13 14:33:48;;;;;;;9.30;6.10;;;16.70;78.20;;;;;;5111369;28;20058;-73
2022/02/13 14:36:52;;;;;;;9.30;6.10;;;16.70;77.50;;;;;;5111052;28;20051;-72
2022/02/13 14:39:56;;;;;;;12.45;6.70;;;16.70;77.00;;;;;;5111081;28;20042;-73
2022/02/13 14:43:00;;;;;;;11.00;6.43;;;16.70;76.10;;;;;;5110258;28;20051;-72
2022/02/13 14:46:05;;;;;;;7.95;5.57;;;16.70;76.40;;;;;;5110245;28;20044;-73
2022/02/13 14:49:09;;;;;;;10.52;6.63;;;16.60;76.90;;;;;;5110543;28;20051;-73
2022/02/13 14:52:15;;;;;;;8.88;6.82;;;16.60;76.90;;;;;;5110786;28;20043;-73
2022/02/13 14:55:20;;;;;;;10.13;7.22;;;16.60;78.00;;;;;;5110758;28;20039;-72
2022/02/13 14:58:23;;;;;;;11.70;7.40;;;16.50;78.70;;;;;;5110977;28;20050;-72
2022/02/13 15:01:28;;;;;;;9.45;6.55;;;16.50;78.30;;;;;;5110695;28;20046;-72
2022/02/13 15:04:32;;;;;;;12.35;7.43;;;16.40;78.10;;;;;;5110922;28;20050;-71
2022/02/13 15:07:36;;;;;;;14.25;7.03;;;16.40;78.00;;;;;;5114527;28;20034;-72
2022/02/13 15:10:41;;;;;;;11.38;7.30;;;16.40;78.60;;;;;;5101756;28;20396;-71
2022/02/13 15:13:45;;;;;;;9.65;6.50;;;16.40;78.90;;;;;;5101718;28;20042;-71
2022/02/13 15:16:56;;;;;;;12.18;7.00;;;16.30;79.30;;;;;;5113333;28;20055;-72
2022/02/13 15:20:03;;;;;;;24.67;19.08;;;16.20;79.70;;;;;;5101694;28;20039;-71
2022/02/13 15:23:07;;;;;;;18.48;9.10;;;16.20;81.40;;;;;;5114096;28;20043;-72
2022/02/13 15:26:11;;;;;;;16.17;8.27;;;16.20;81.20;;;;;;5114368;28;20030;-71
2022/02/13 15:29:17;;;;;;;15.20;8.45;;;16.10;81.10;;;;;;5113966;28;20047;-71
2022/02/13 15:32:21;;;;;;;18.45;9.48;;;16.00;81.60;;;;;;5113157;28;20058;-71
2022/02/13 15:35:26;;;;;;;21.50;14.15;;;16.00;82.30;;;;;;5114022;28;20046;-71
2022/02/13 15:38:30;;;;;;;17.10;10.10;;;15.90;83.00;;;;;;5113801;28;20051;-71
2022/02/13 15:41:33;;;;;;;18.27;8.90;;;15.90;83.00;;;;;;5113674;28;20523;-71
2022/02/13 15:44:38;;;;;;;13.13;8.82;;;15.80;83.60;;;;;;5113979;28;20402;-71
2022/02/13 15:47:41;;;;;;;10.70;7.80;;;15.80;84.50;;;;;;5113565;28;20035;-71
2022/02/13 15:50:45;;;;;;;13.73;8.93;;;15.80;84.40;;;;;;5113350;28;20419;-71
2022/02/13 15:53:50;;;;;;;14.93;8.48;;;15.70;84.20;;;;;;5113182;28;20070;-72
2022/02/13 15:56:56;;;;;;;12.90;9.50;;;15.60;85.60;;;;;;5113203;28;20050;-72